createdAt,value
2022-10-30T00:00:55.741Z,59.58
2022-10-30T00:03:23.456Z,59.67
2022-10-30T00:05:52.697Z,59.73
2022-10-30T00:08:22.789Z,59.77
2022-10-30T00:10:51.981Z,59.70
2022-10-30T00:13:21.303Z,59.71
2022-10-30T00:15:50.537Z,59.75
2022-10-30T00:18:18.710Z,59.67
2022-10-30T00:20:46.520Z,59.81
2022-10-30T00:23:14.975Z,59.80
2022-10-30T00:25:42.625Z,59.99
2022-10-30T00:28:11.733Z,59.97
2022-10-30T00:30:39.412Z,60.01
2022-10-30T00:33:07.097Z,60.14
2022-10-30T00:35:34.855Z,60.05
2022-10-30T00:38:02.756Z,60.10
2022-10-30T00:40:30.495Z,60.23
2022-10-30T00:42:58.159Z,60.33
2022-10-30T00:45:27.207Z,60.42
2022-10-30T00:47:59.561Z,60.52
2022-10-30T00:50:30.924Z,60.69
2022-10-30T00:53:01.836Z,60.97
2022-10-30T00:55:34.421Z,61.02
2022-10-30T00:58:07.713Z,61.14
2022-10-30T01:00:40.640Z,61.06
2022-10-30T01:03:08.666Z,61.33
2022-10-30T01:05:37.276Z,61.42
2022-10-30T01:08:05.054Z,61.44
2022-10-30T01:10:32.936Z,61.48
2022-10-30T01:13:01.797Z,61.82
2022-10-30T01:15:34.291Z,61.87
2022-10-30T01:18:20.126Z,61.99
2022-10-30T01:21:08.567Z,62.04
2022-10-30T01:23:45.985Z,62.24
2022-10-30T01:26:24.338Z,62.33
2022-10-30T01:29:05.005Z,62.45
2022-10-30T01:31:46.772Z,62.62
2022-10-30T01:34:20.959Z,62.64
2022-10-30T01:36:56.588Z,62.75
2022-10-30T01:39:26.716Z,63.04
2022-10-30T01:41:54.440Z,63.23
2022-10-30T01:44:26.657Z,63.34
2022-10-30T01:47:09.388Z,63.63
2022-10-30T01:50:03.590Z,63.75
2022-10-30T01:52:43.078Z,64.03
2022-10-30T01:55:22.088Z,64.11
2022-10-30T01:57:55.647Z,64.23
2022-10-30T02:00:23.724Z,64.52
2022-10-30T02:02:52.665Z,64.44
2022-10-30T02:05:28.918Z,64.60
2022-10-30T02:07:56.868Z,64.76
2022-10-30T02:10:24.910Z,64.90
2022-10-30T02:12:52.613Z,64.94
2022-10-30T02:15:20.606Z,64.94
2022-10-30T02:17:50.329Z,65.06
2022-10-30T02:20:20.679Z,65.18
2022-10-30T02:22:52.873Z,65.22
2022-10-30T02:25:23.926Z,65.51
2022-10-30T02:27:51.628Z,65.67
2022-10-30T02:30:19.393Z,65.77
2022-10-30T02:32:47.036Z,65.78
2022-10-30T02:35:14.948Z,66.42
2022-10-30T02:37:43.967Z,66.37
2022-10-30T02:40:12.456Z,66.62
2022-10-30T02:42:40.056Z,66.79
2022-10-30T02:45:08.882Z,66.96
2022-10-30T02:47:36.546Z,67.08
2022-10-30T02:50:04.383Z,67.21
2022-10-30T02:52:33.025Z,67.25
2022-10-30T02:55:02.055Z,67.56
2022-10-30T02:57:29.701Z,67.41
2022-10-30T02:59:57.361Z,67.73
2022-10-30T03:02:25.134Z,67.73
2022-10-30T03:04:52.866Z,67.74
2022-10-30T03:07:20.472Z,67.99
2022-10-30T03:09:48.501Z,68.03
2022-10-30T03:12:17.517Z,68.23
2022-10-30T03:14:45.567Z,68.20
2022-10-30T03:17:13.237Z,68.24
2022-10-30T03:19:41.785Z,68.33
2022-10-30T03:22:09.481Z,68.37
2022-10-30T03:24:38.183Z,68.48
2022-10-30T03:27:05.827Z,68.60
2022-10-30T03:29:34.850Z,68.62
2022-10-30T03:32:02.469Z,68.74
2022-10-30T03:34:30.114Z,68.92
2022-10-30T03:36:57.808Z,68.95
2022-10-30T03:39:25.534Z,69.08
2022-10-30T03:41:53.178Z,69.23
2022-10-30T03:44:20.789Z,69.38
2022-10-30T03:46:49.771Z,69.26
2022-10-30T03:49:17.464Z,69.60
2022-10-30T03:51:45.098Z,69.74
2022-10-30T03:54:12.727Z,69.84
2022-10-30T03:56:40.396Z,70.09
2022-10-30T03:59:08.007Z,70.04
2022-10-30T04:01:35.703Z,70.14
2022-10-30T04:04:04.995Z,70.35
2022-10-30T04:06:32.640Z,70.75
2022-10-30T04:09:00.294Z,70.73
2022-10-30T04:11:28.016Z,70.88
2022-10-30T04:13:55.788Z,71.18
2022-10-30T04:16:23.455Z,71.48
2022-10-30T04:18:51.121Z,71.79
2022-10-30T04:21:20.153Z,71.82
2022-10-30T04:23:47.843Z,72.06
2022-10-30T04:26:15.884Z,72.42
2022-10-30T04:28:43.531Z,72.42
2022-10-30T04:31:11.154Z,72.89
2022-10-30T04:33:38.831Z,72.86
2022-10-30T04:36:07.138Z,73.03
2022-10-30T04:38:36.194Z,73.23
2022-10-30T04:41:03.836Z,73.38
2022-10-30T04:43:31.477Z,73.85
2022-10-30T04:45:59.129Z,73.89
2022-10-30T04:48:27.353Z,74.02
2022-10-30T04:50:55.005Z,74.15
2022-10-30T04:53:22.665Z,74.51
2022-10-30T04:55:54.888Z,74.50
2022-10-30T04:58:22.546Z,74.50
2022-10-30T05:00:50.222Z,74.90
2022-10-30T05:03:20.728Z,74.60
2022-10-30T05:05:49.386Z,74.69
2022-10-30T05:08:18.107Z,74.86
2022-10-30T05:10:45.802Z,74.95
2022-10-30T05:13:14.833Z,75.07
2022-10-30T05:15:42.684Z,75.34
2022-10-30T05:18:10.331Z,75.62
2022-10-30T05:20:37.986Z,75.35
2022-10-30T05:23:05.981Z,75.53
2022-10-30T05:25:33.910Z,75.75
2022-10-30T05:28:02.417Z,75.86
2022-10-30T05:30:33.251Z,75.96
2022-10-30T05:33:01.762Z,75.74
2022-10-30T05:35:30.300Z,76.21
2022-10-30T05:37:57.948Z,75.99
2022-10-30T05:40:25.670Z,75.99
2022-10-30T05:42:53.729Z,76.23
2022-10-30T05:45:21.640Z,76.48
2022-10-30T05:47:57.988Z,76.31
2022-10-30T05:50:26.981Z,76.42
2022-10-30T05:52:56.784Z,76.52
2022-10-30T05:55:24.703Z,76.65
2022-10-30T05:57:57.227Z,76.72
2022-10-30T06:00:25.597Z,77.23
2022-10-30T06:02:53.385Z,77.07
2022-10-30T06:05:22.447Z,77.10
2022-10-30T06:07:50.083Z,77.05
2022-10-30T06:10:17.972Z,77.55
2022-10-30T06:12:53.557Z,77.47
2022-10-30T06:15:21.251Z,77.39
2022-10-30T06:17:48.922Z,77.64
2022-10-30T06:20:17.144Z,77.48
2022-10-30T06:22:54.585Z,77.60
2022-10-30T06:25:22.627Z,77.61
2022-10-30T06:27:50.350Z,77.65
2022-10-30T06:30:18.297Z,77.62
2022-10-30T06:32:45.923Z,77.51
2022-10-30T06:35:13.645Z,77.70
2022-10-30T06:37:47.161Z,77.69
2022-10-30T06:40:16.937Z,77.62
2022-10-30T06:42:45.688Z,77.59
2022-10-30T06:45:14.594Z,77.51
2022-10-30T06:47:42.898Z,77.43
2022-10-30T06:50:13.190Z,77.67
2022-10-30T06:52:41.062Z,77.93
2022-10-30T06:55:09.847Z,77.39
2022-10-30T06:57:39.151Z,77.52
2022-10-30T07:00:08.803Z,78.11
2022-10-30T07:02:36.497Z,77.94
2022-10-30T07:05:04.252Z,77.42
2022-10-30T07:07:31.935Z,77.54
2022-10-30T07:09:59.595Z,77.28
2022-10-30T07:12:27.240Z,77.42
2022-10-30T07:14:56.316Z,77.40
2022-10-30T07:17:23.992Z,77.22
2022-10-30T07:19:51.637Z,77.08
2022-10-30T07:22:19.666Z,76.56
2022-10-30T07:24:47.341Z,76.64
2022-10-30T07:27:15.012Z,76.60
2022-10-30T07:29:42.693Z,76.52
2022-10-30T07:32:14.156Z,76.57
2022-10-30T07:34:41.839Z,76.79
2022-10-30T07:37:09.519Z,76.80
2022-10-30T07:39:37.215Z,76.59
2022-10-30T07:42:05.104Z,76.39
2022-10-30T07:44:32.805Z,76.41
2022-10-30T07:47:00.482Z,76.33
2022-10-30T07:49:29.551Z,76.01
2022-10-30T07:51:57.220Z,76.09
2022-10-30T07:54:24.953Z,75.54
2022-10-30T07:56:52.618Z,75.36
2022-10-30T07:59:20.385Z,75.52
2022-10-30T08:01:49.842Z,75.28
2022-10-30T08:04:17.628Z,74.76
2022-10-30T08:06:46.791Z,74.75
2022-10-30T08:09:14.562Z,74.44
2022-10-30T08:11:42.275Z,74.38
2022-10-30T08:14:09.996Z,73.97
2022-10-30T08:16:37.658Z,73.83
2022-10-30T08:19:05.463Z,73.51
2022-10-30T08:21:33.549Z,73.23
2022-10-30T08:24:02.663Z,73.09
2022-10-30T08:26:30.426Z,72.74
2022-10-30T08:28:58.100Z,72.55
2022-10-30T08:31:25.773Z,72.62
2022-10-30T08:33:53.525Z,71.87
2022-10-30T08:36:21.190Z,71.22
2022-10-30T08:38:48.927Z,71.40
2022-10-30T08:41:18.032Z,70.87
2022-10-30T08:43:45.686Z,70.32
2022-10-30T08:46:13.343Z,70.22
2022-10-30T08:48:41.062Z,69.89
2022-10-30T08:51:08.835Z,69.77
2022-10-30T08:53:36.524Z,69.30
2022-10-30T08:56:05.261Z,69.29
2022-10-30T08:58:34.449Z,68.79
2022-10-30T09:01:02.305Z,68.42
2022-10-30T09:03:30.073Z,68.21
2022-10-30T09:05:59.244Z,68.13
2022-10-30T09:08:26.957Z,67.56
2022-10-30T09:10:55.937Z,67.26
2022-10-30T09:13:23.653Z,66.91
2022-10-30T09:15:54.907Z,66.82
2022-10-30T09:18:22.617Z,66.96
2022-10-30T09:20:50.631Z,66.59
2022-10-30T09:23:18.312Z,66.45
2022-10-30T09:25:45.996Z,66.09
2022-10-30T09:28:13.810Z,65.69
2022-10-30T09:30:41.608Z,65.76
2022-10-30T09:33:10.970Z,65.58
2022-10-30T09:35:38.615Z,65.31
2022-10-30T09:38:06.278Z,65.08
2022-10-30T09:40:49.474Z,65.10
2022-10-30T09:43:27.919Z,65.06
2022-10-30T09:46:16.823Z,65.09
2022-10-30T09:49:06.258Z,65.17
2022-10-30T09:52:09.192Z,65.23
2022-10-30T09:54:44.532Z,65.37
2022-10-30T09:57:20.832Z,64.84
2022-10-30T10:00:00.217Z,64.84
2022-10-30T10:02:35.057Z,64.54
2022-10-30T10:05:15.122Z,64.34
2022-10-30T10:07:46.187Z,64.32
2022-10-30T10:10:20.862Z,63.95
2022-10-30T10:12:57.242Z,63.85
2022-10-30T10:15:39.342Z,63.90
2022-10-30T10:18:18.798Z,63.42
2022-10-30T10:20:51.741Z,63.44
2022-10-30T10:23:22.542Z,63.25
2022-10-30T10:25:54.512Z,63.36
2022-10-30T10:28:42.882Z,63.09
2022-10-30T10:31:23.367Z,62.83
2022-10-30T10:34:07.430Z,63.32
2022-10-30T10:36:45.267Z,62.76
2022-10-30T10:39:29.474Z,62.56
2022-10-30T10:42:10.306Z,62.42
2022-10-30T10:44:54.114Z,62.14
2022-10-30T10:47:54.188Z,61.55
2022-10-30T10:50:26.588Z,61.25
2022-10-30T10:52:58.716Z,61.09
2022-10-30T10:55:29.815Z,61.28
2022-10-30T10:58:05.524Z,61.16
2022-10-30T11:00:33.614Z,60.07
2022-10-30T11:03:08.249Z,60.22
2022-10-30T11:05:40.649Z,59.84
2022-10-30T11:08:13.219Z,59.83
2022-10-30T11:10:40.868Z,59.49
2022-10-30T11:13:12.621Z,59.51
2022-10-30T11:15:52.395Z,59.73
2022-10-30T11:18:20.063Z,59.19
2022-10-30T11:20:57.126Z,59.39
2022-10-30T11:23:42.141Z,59.33
2022-10-30T11:26:31.801Z,58.93
2022-10-30T11:29:03.537Z,59.00
2022-10-30T11:31:35.340Z,58.48
2022-10-30T11:34:24.323Z,58.69
2022-10-30T11:36:53.545Z,58.55
2022-10-30T11:39:25.017Z,58.55
2022-10-30T11:41:59.284Z,58.22
2022-10-30T11:44:31.660Z,57.96
2022-10-30T11:46:59.651Z,58.02
2022-10-30T11:49:45.843Z,58.16
2022-10-30T11:52:16.469Z,58.09
2022-10-30T11:54:49.881Z,58.18
2022-10-30T11:57:24.386Z,58.26
2022-10-30T11:59:58.288Z,57.91
2022-10-30T12:02:31.318Z,57.88
2022-10-30T12:05:03.699Z,57.29
2022-10-30T12:07:32.898Z,57.34
2022-10-30T12:10:03.077Z,57.18
2022-10-30T12:12:34.778Z,57.15
2022-10-30T12:15:11.620Z,57.62
2022-10-30T12:17:40.979Z,57.45
2022-10-30T12:20:14.562Z,57.27
2022-10-30T12:22:42.787Z,57.25
2022-10-30T12:25:24.009Z,56.68
2022-10-30T12:27:59.330Z,56.73
2022-10-30T12:30:29.852Z,57.12
2022-10-30T12:33:01.833Z,57.21
2022-10-30T12:35:37.038Z,57.22
2022-10-30T12:38:12.314Z,57.61
2022-10-30T12:40:46.556Z,57.28
2022-10-30T12:43:23.525Z,57.18
2022-10-30T12:45:54.642Z,56.45
2022-10-30T12:48:26.869Z,56.36
2022-10-30T12:50:59.096Z,55.73
2022-10-30T12:53:33.560Z,56.15
2022-10-30T12:56:09.719Z,56.01
2022-10-30T12:58:45.753Z,55.89
2022-10-30T13:01:26.627Z,56.08
2022-10-30T13:04:00.308Z,56.14
2022-10-30T13:06:32.986Z,56.15
2022-10-30T13:09:10.673Z,56.41
2022-10-30T13:11:49.672Z,56.48
2022-10-30T13:14:21.165Z,56.03
2022-10-30T13:16:51.695Z,56.19
2022-10-30T13:19:19.567Z,56.18
2022-10-30T13:21:57.011Z,56.11
2022-10-30T13:24:33.943Z,56.50
2022-10-30T13:27:08.360Z,56.64
2022-10-30T13:29:45.477Z,56.83
2022-10-30T13:32:30.602Z,56.94
2022-10-30T13:35:15.796Z,56.89
2022-10-30T13:37:50.671Z,56.75
2022-10-30T13:40:26.644Z,56.74
2022-10-30T13:43:03.010Z,56.61
2022-10-30T13:45:56.975Z,56.87
2022-10-30T13:48:36.119Z,57.08
2022-10-30T13:51:19.319Z,57.62
2022-10-30T13:53:51.708Z,57.79
2022-10-30T13:56:21.954Z,58.30
2022-10-30T13:59:04.077Z,58.35
2022-10-30T14:01:36.890Z,57.98
2022-10-30T14:04:11.145Z,58.56
2022-10-30T14:06:48.794Z,57.76
2022-10-30T14:09:24.650Z,57.80
2022-10-30T14:11:54.300Z,57.27
2022-10-30T14:14:31.202Z,57.54
2022-10-30T14:17:16.318Z,57.22
2022-10-30T14:20:26.874Z,57.17
2022-10-30T14:23:14.447Z,57.08
2022-10-30T14:25:42.933Z,57.18
2022-10-30T14:28:21.230Z,57.16
2022-10-30T14:31:03.559Z,57.15
2022-10-30T14:33:44.013Z,57.00
2022-10-30T14:36:17.768Z,57.62
2022-10-30T14:38:54.853Z,57.96
2022-10-30T14:41:49.372Z,58.29
2022-10-30T14:44:45.400Z,57.80
2022-10-30T14:47:48.589Z,57.97
2022-10-30T14:50:30.850Z,58.07
2022-10-30T14:53:11.534Z,58.36
2022-10-30T14:55:54.638Z,58.69
2022-10-30T14:58:26.157Z,58.71
2022-10-30T15:01:40.571Z,58.82
2022-10-30T15:04:18.364Z,58.96
2022-10-30T15:06:58.512Z,59.13
2022-10-30T15:09:38.692Z,59.22
2022-10-30T15:12:23.727Z,59.40
2022-10-30T15:14:56.386Z,59.82
2022-10-30T15:17:29.945Z,59.94
2022-10-30T15:20:02.126Z,60.21
2022-10-30T15:22:31.276Z,60.00
2022-10-30T15:24:59.643Z,60.14
2022-10-30T15:27:28.016Z,59.90
2022-10-30T15:29:59.417Z,60.09
2022-10-30T15:32:27.270Z,60.13
2022-10-30T15:34:57.845Z,60.31
2022-10-30T15:37:27.785Z,60.61
2022-10-30T15:40:20.176Z,60.71
2022-10-30T15:42:50.048Z,61.11
2022-10-30T15:45:20.499Z,61.30
2022-10-30T15:47:54.050Z,61.48
2022-10-30T15:50:21.855Z,61.83
2022-10-30T15:52:52.324Z,61.90
2022-10-30T15:55:25.136Z,62.07
2022-10-30T15:58:03.287Z,62.53
2022-10-30T16:00:34.447Z,62.53
2022-10-30T16:03:03.983Z,62.63
2022-10-30T16:05:32.673Z,63.04
2022-10-30T16:08:03.598Z,63.09
2022-10-30T16:10:34.685Z,63.15
2022-10-30T16:13:03.681Z,63.33
2022-10-30T16:15:34.874Z,63.71
2022-10-30T16:18:08.319Z,63.75
2022-10-30T16:20:37.257Z,64.17
2022-10-30T16:23:06.749Z,64.17
2022-10-30T16:25:37.393Z,64.45
2022-10-30T16:28:06.315Z,64.72
2022-10-30T16:30:35.300Z,65.08
2022-10-30T16:33:04.772Z,65.13
2022-10-30T16:35:32.612Z,65.46
2022-10-30T16:38:02.617Z,65.71
2022-10-30T16:40:32.623Z,65.91
2022-10-30T16:43:03.324Z,66.14
2022-10-30T16:45:47.451Z,66.55
2022-10-30T16:48:20.008Z,66.69
2022-10-30T16:50:48.438Z,66.90
2022-10-30T16:53:21.237Z,67.01
2022-10-30T16:55:52.898Z,67.08
2022-10-30T16:58:21.400Z,67.56
2022-10-30T17:00:53.806Z,67.48
2022-10-30T17:03:26.481Z,67.77
2022-10-30T17:06:00.311Z,68.03
2022-10-30T17:08:35.546Z,68.18
2022-10-30T17:11:06.978Z,68.49
2022-10-30T17:13:37.590Z,68.92
2022-10-30T17:16:25.511Z,69.03
2022-10-30T17:18:55.200Z,69.15
2022-10-30T17:21:26.237Z,69.31
2022-10-30T17:23:57.246Z,69.57
2022-10-30T17:26:27.695Z,69.85
2022-10-30T17:28:55.961Z,70.09
2022-10-30T17:31:29.591Z,70.04
2022-10-30T17:34:16.116Z,70.24
2022-10-30T17:36:44.473Z,70.63
2022-10-30T17:39:12.365Z,70.70
2022-10-30T17:41:44.196Z,70.85
2022-10-30T17:44:19.789Z,70.97
2022-10-30T17:46:47.611Z,71.07
2022-10-30T17:49:26.042Z,71.24
2022-10-30T17:51:54.300Z,71.69
2022-10-30T17:54:22.472Z,72.07
2022-10-30T17:56:52.657Z,72.03
2022-10-30T17:59:20.623Z,72.14
2022-10-30T18:01:49.198Z,72.18
2022-10-30T18:04:20.585Z,72.38
2022-10-30T18:06:49.041Z,72.56
2022-10-30T18:09:17.024Z,72.62
2022-10-30T18:11:45.120Z,72.51
2022-10-30T18:14:14.194Z,72.82
2022-10-30T18:16:41.938Z,73.21
2022-10-30T18:19:12.822Z,73.46
2022-10-30T18:21:42.469Z,73.64
2022-10-30T18:24:13.942Z,73.50
2022-10-30T18:26:42.303Z,73.44
2022-10-30T18:29:10.438Z,73.47
2022-10-30T18:31:40.405Z,72.90
2022-10-30T18:34:14.998Z,72.52
2022-10-30T18:36:42.868Z,72.63
2022-10-30T18:39:12.839Z,72.77
2022-10-30T18:41:43.290Z,72.54
2022-10-30T18:44:15.744Z,72.36
2022-10-30T18:46:45.660Z,72.27
2022-10-30T18:49:13.529Z,72.14
2022-10-30T18:51:41.678Z,71.95
2022-10-30T18:54:14.600Z,72.08
2022-10-30T18:56:42.695Z,72.28
2022-10-30T18:59:10.421Z,72.29
2022-10-30T19:01:38.294Z,72.26
2022-10-30T19:04:10.637Z,72.31
2022-10-30T19:06:38.888Z,72.50
2022-10-30T19:09:07.116Z,72.39
2022-10-30T19:11:38.246Z,72.38
2022-10-30T19:14:10.938Z,72.40
2022-10-30T19:16:38.628Z,72.54
2022-10-30T19:19:06.384Z,72.41
2022-10-30T19:21:35.483Z,72.57
2022-10-30T19:24:03.637Z,72.65
2022-10-30T19:26:31.326Z,72.70
2022-10-30T19:28:59.013Z,72.82
2022-10-30T19:31:26.697Z,72.76
2022-10-30T19:33:57.430Z,72.96
2022-10-30T19:36:30.984Z,72.82
2022-10-30T19:39:05.780Z,72.83
2022-10-30T19:41:36.521Z,72.95
2022-10-30T19:44:04.393Z,73.13
2022-10-30T19:46:32.098Z,73.13
2022-10-30T19:49:00.462Z,73.20
2022-10-30T19:51:31.193Z,73.39
2022-10-30T19:54:00.269Z,73.34
2022-10-30T19:56:27.991Z,73.56
2022-10-30T19:58:55.629Z,73.72
2022-10-30T20:01:23.524Z,73.95
2022-10-30T20:03:51.326Z,74.09
2022-10-30T20:06:21.164Z,74.30
2022-10-30T20:08:48.918Z,74.47
2022-10-30T20:11:18.010Z,74.67
2022-10-30T20:13:47.065Z,74.83
2022-10-30T20:16:16.839Z,74.99
2022-10-30T20:18:44.594Z,75.17
2022-10-30T20:21:14.377Z,75.27
2022-10-30T20:23:42.127Z,75.37
2022-10-30T20:26:23.948Z,75.63
2022-10-30T20:28:52.471Z,75.67
2022-10-30T20:31:20.252Z,75.69
2022-10-30T20:33:48.123Z,75.92
2022-10-30T20:36:15.898Z,76.15
2022-10-30T20:38:43.642Z,76.26
2022-10-30T20:41:22.641Z,76.27
2022-10-30T20:43:51.055Z,76.58
2022-10-30T20:46:19.629Z,76.79
2022-10-30T20:48:47.551Z,76.74
2022-10-30T20:51:15.319Z,77.01
2022-10-30T20:53:43.117Z,77.02
2022-10-30T20:56:11.533Z,77.15
2022-10-30T20:58:42.084Z,77.28
2022-10-30T21:01:10.884Z,77.33
2022-10-30T21:03:38.724Z,77.56
2022-10-30T21:06:09.582Z,77.62
2022-10-30T21:08:37.379Z,77.56
2022-10-30T21:11:06.984Z,77.56
2022-10-30T21:13:35.291Z,77.61
2022-10-30T21:16:06.435Z,77.66
2022-10-30T21:18:34.138Z,77.86
2022-10-30T21:21:02.513Z,77.87
2022-10-30T21:23:30.388Z,77.87
2022-10-30T21:26:01.546Z,77.99
2022-10-30T21:28:29.271Z,78.15
2022-10-30T21:31:03.181Z,78.12
2022-10-30T21:33:39.454Z,78.23
2022-10-30T21:36:12.441Z,78.32
2022-10-30T21:38:42.757Z,78.69
2022-10-30T21:41:11.661Z,78.85
2022-10-30T21:43:39.501Z,78.80
2022-10-30T21:46:07.881Z,79.15
2022-10-30T21:48:37.026Z,79.18
2022-10-30T21:51:10.073Z,79.18
2022-10-30T21:53:37.998Z,79.11
2022-10-30T21:56:07.557Z,79.12
2022-10-30T21:58:35.528Z,79.48
2022-10-30T22:01:03.426Z,79.42
2022-10-30T22:03:31.936Z,79.25
2022-10-30T22:06:06.305Z,79.39
2022-10-30T22:08:33.975Z,79.33
2022-10-30T22:11:04.517Z,79.22
2022-10-30T22:13:32.176Z,79.45
2022-10-30T22:15:59.917Z,79.35
2022-10-30T22:18:28.249Z,79.48
2022-10-30T22:21:02.276Z,79.54
2022-10-30T22:23:30.167Z,79.59
2022-10-30T22:25:57.903Z,79.61
2022-10-30T22:28:25.625Z,79.86
2022-10-30T22:30:53.752Z,79.86
2022-10-30T22:33:22.477Z,79.78
2022-10-30T22:35:50.127Z,79.89
2022-10-30T22:38:19.128Z,80.02
2022-10-30T22:40:46.763Z,80.01
2022-10-30T22:43:14.598Z,80.20
2022-10-30T22:45:42.288Z,80.44
2022-10-30T22:48:09.909Z,80.44
2022-10-30T22:50:39.148Z,80.44
2022-10-30T22:53:06.767Z,80.36
2022-10-30T22:55:35.851Z,80.37
2022-10-30T22:58:03.777Z,80.30
2022-10-30T23:00:31.618Z,80.39
2022-10-30T23:03:00.250Z,80.47
2022-10-30T23:05:28.099Z,80.65
2022-10-30T23:07:55.753Z,80.68
2022-10-30T23:10:23.386Z,80.64
2022-10-30T23:12:52.919Z,80.67
2022-10-30T23:15:20.534Z,80.92
2022-10-30T23:17:49.677Z,80.64
2022-10-30T23:20:17.960Z,80.94
2022-10-30T23:22:45.596Z,80.97
2022-10-30T23:25:13.255Z,80.97
2022-10-30T23:27:40.896Z,80.92
2022-10-30T23:30:11.804Z,80.95
2022-10-30T23:32:39.434Z,80.90
2022-10-30T23:35:07.585Z,80.87
2022-10-30T23:37:35.202Z,81.25
2022-10-30T23:40:03.263Z,80.95
2022-10-30T23:42:30.955Z,81.03
2022-10-30T23:44:58.576Z,81.30
2022-10-30T23:47:27.568Z,81.50
2022-10-30T23:49:55.205Z,81.47
2022-10-30T23:52:22.816Z,81.77
2022-10-30T23:54:50.455Z,81.47
2022-10-30T23:57:18.141Z,81.60
2022-10-30T23:59:46.988Z,81.25
